sensor_id;sensor_type;location;lat;lon;timestamp;P1;durP1;ratioP1;P2;durP2;ratioP2
2388;SDS011;1205;47.984;7.668;2023-01-30T00:01:01;11.03;;;7.23;;
2388;SDS011;1205;47.984;7.668;2023-01-30T00:03:29;11.03;;;7.17;;
2388;SDS011;1205;47.984;7.668;2023-01-30T00:05:55;15.77;;;9.20;;
2388;SDS011;1205;47.984;7.668;2023-01-30T00:08:20;11.23;;;7.63;;
2388;SDS011;1205;47.984;7.668;2023-01-30T00:10:46;10.70;;;7.87;;
2388;SDS011;1205;47.984;7.668;2023-01-30T00:13:12;14.13;;;8.53;;
2388;SDS011;1205;47.984;7.668;2023-01-30T00:15:39;11.13;;;7.53;;
2388;SDS011;1205;47.984;7.668;2023-01-30T00:18:05;11.17;;;7.87;;
2388;SDS011;1205;47.984;7.668;2023-01-30T00:20:31;12.90;;;8.40;;
2388;SDS011;1205;47.984;7.668;2023-01-30T00:22:57;11.17;;;8.27;;
2388;SDS011;1205;47.984;7.668;2023-01-30T00:25:23;13.50;;;8.90;;
2388;SDS011;1205;47.984;7.668;2023-01-30T00:27:49;15.13;;;8.20;;
2388;SDS011;1205;47.984;7.668;2023-01-30T00:30:15;15.70;;;8.50;;
2388;SDS011;1205;47.984;7.668;2023-01-30T00:32:41;11.13;;;8.17;;
2388;SDS011;1205;47.984;7.668;2023-01-30T00:35:06;12.40;;;7.83;;
2388;SDS011;1205;47.984;7.668;2023-01-30T00:37:32;10.70;;;7.13;;
2388;SDS011;1205;47.984;7.668;2023-01-30T00:39:58;10.50;;;7.87;;
2388;SDS011;1205;47.984;7.668;2023-01-30T00:42:23;10.80;;;7.40;;
2388;SDS011;1205;47.984;7.668;2023-01-30T00:45:09;12.37;;;7.70;;
2388;SDS011;1205;47.984;7.668;2023-01-30T00:47:54;12.13;;;7.80;;
2388;SDS011;1205;47.984;7.668;2023-01-30T00:50:20;11.57;;;7.70;;
2388;SDS011;1205;47.984;7.668;2023-01-30T00:52:45;12.33;;;7.73;;
2388;SDS011;1205;47.984;7.668;2023-01-30T00:55:11;11.10;;;8.20;;
2388;SDS011;1205;47.984;7.668;2023-01-30T00:57:36;11.00;;;7.67;;
2388;SDS011;1205;47.984;7.668;2023-01-30T01:00:02;11.20;;;7.90;;
2388;SDS011;1205;47.984;7.668;2023-01-30T01:02:29;9.43;;;6.63;;
2388;SDS011;1205;47.984;7.668;2023-01-30T01:04:55;11.13;;;7.73;;
2388;SDS011;1205;47.984;7.668;2023-01-30T01:07:21;11.77;;;7.80;;
2388;SDS011;1205;47.984;7.668;2023-01-30T01:09:46;11.67;;;7.17;;
2388;SDS011;1205;47.984;7.668;2023-01-30T01:12:12;11.90;;;7.67;;
2388;SDS011;1205;47.984;7.668;2023-01-30T01:14:37;12.67;;;7.97;;
2388;SDS011;1205;47.984;7.668;2023-01-30T01:17:03;10.00;;;7.87;;
2388;SDS011;1205;47.984;7.668;2023-01-30T01:19:29;9.40;;;7.00;;
2388;SDS011;1205;47.984;7.668;2023-01-30T01:21:54;9.87;;;6.83;;
2388;SDS011;1205;47.984;7.668;2023-01-30T01:24:20;11.57;;;7.70;;
2388;SDS011;1205;47.984;7.668;2023-01-30T01:26:45;12.33;;;8.20;;
2388;SDS011;1205;47.984;7.668;2023-01-30T01:29:12;10.40;;;7.73;;
2388;SDS011;1205;47.984;7.668;2023-01-30T01:31:39;12.63;;;7.63;;
2388;SDS011;1205;47.984;7.668;2023-01-30T01:34:04;10.80;;;7.40;;
2388;SDS011;1205;47.984;7.668;2023-01-30T01:36:30;9.53;;;7.53;;
2388;SDS011;1205;47.984;7.668;2023-01-30T01:38:56;10.70;;;7.50;;
2388;SDS011;1205;47.984;7.668;2023-01-30T01:41:21;11.20;;;7.43;;
2388;SDS011;1205;47.984;7.668;2023-01-30T01:44:04;9.70;;;7.37;;
2388;SDS011;1205;47.984;7.668;2023-01-30T01:48:57;8.37;;;6.70;;
2388;SDS011;1205;47.984;7.668;2023-01-30T01:51:27;11.40;;;7.90;;
2388;SDS011;1205;47.984;7.668;2023-01-30T01:53:59;10.90;;;7.77;;
2388;SDS011;1205;47.984;7.668;2023-01-30T01:56:30;12.67;;;7.00;;
2388;SDS011;1205;47.984;7.668;2023-01-30T01:59:00;10.60;;;7.70;;
2388;SDS011;1205;47.984;7.668;2023-01-30T02:01:31;13.23;;;8.20;;
2388;SDS011;1205;47.984;7.668;2023-01-30T02:03:57;13.47;;;8.20;;
2388;SDS011;1205;47.984;7.668;2023-01-30T02:06:27;10.00;;;7.40;;
2388;SDS011;1205;47.984;7.668;2023-01-30T02:08:57;12.13;;;8.60;;
2388;SDS011;1205;47.984;7.668;2023-01-30T02:14:05;13.80;;;8.70;;
2388;SDS011;1205;47.984;7.668;2023-01-30T02:16:31;12.27;;;8.20;;
2388;SDS011;1205;47.984;7.668;2023-01-30T02:18:57;13.70;;;9.00;;
2388;SDS011;1205;47.984;7.668;2023-01-30T02:21:42;13.93;;;8.63;;
2388;SDS011;1205;47.984;7.668;2023-01-30T02:27:46;17.60;;;8.37;;
2388;SDS011;1205;47.984;7.668;2023-01-30T02:30:39;12.60;;;8.53;;
2388;SDS011;1205;47.984;7.668;2023-01-30T02:33:32;10.37;;;7.53;;
2388;SDS011;1205;47.984;7.668;2023-01-30T02:39:08;12.63;;;8.13;;
2388;SDS011;1205;47.984;7.668;2023-01-30T02:41:42;15.87;;;7.67;;
2388;SDS011;1205;47.984;7.668;2023-01-30T02:44:25;11.87;;;7.90;;
2388;SDS011;1205;47.984;7.668;2023-01-30T02:47:12;14.43;;;9.00;;
2388;SDS011;1205;47.984;7.668;2023-01-30T02:49:43;11.70;;;8.10;;
2388;SDS011;1205;47.984;7.668;2023-01-30T02:52:21;11.50;;;8.23;;
2388;SDS011;1205;47.984;7.668;2023-01-30T02:54:48;12.87;;;7.57;;
2388;SDS011;1205;47.984;7.668;2023-01-30T02:57:18;11.73;;;8.07;;
2388;SDS011;1205;47.984;7.668;2023-01-30T02:59:46;11.20;;;7.97;;
2388;SDS011;1205;47.984;7.668;2023-01-30T03:15:41;12.77;;;8.40;;
2388;SDS011;1205;47.984;7.668;2023-01-30T03:18:21;12.63;;;8.20;;
2388;SDS011;1205;47.984;7.668;2023-01-30T03:20:47;13.70;;;9.00;;
2388;SDS011;1205;47.984;7.668;2023-01-30T03:23:12;11.43;;;7.40;;
2388;SDS011;1205;47.984;7.668;2023-01-30T03:25:38;12.07;;;7.97;;
2388;SDS011;1205;47.984;7.668;2023-01-30T03:28:07;13.00;;;8.47;;
2388;SDS011;1205;47.984;7.668;2023-01-30T03:30:33;12.83;;;8.90;;
2388;SDS011;1205;47.984;7.668;2023-01-30T03:32:59;14.23;;;8.10;;
2388;SDS011;1205;47.984;7.668;2023-01-30T03:35:25;10.70;;;7.80;;
2388;SDS011;1205;47.984;7.668;2023-01-30T03:37:50;14.60;;;9.27;;
2388;SDS011;1205;47.984;7.668;2023-01-30T03:40:16;10.83;;;7.40;;
2388;SDS011;1205;47.984;7.668;2023-01-30T03:42:42;13.13;;;8.73;;
2388;SDS011;1205;47.984;7.668;2023-01-30T03:45:08;11.67;;;7.40;;
2388;SDS011;1205;47.984;7.668;2023-01-30T03:47:34;12.10;;;7.97;;
2388;SDS011;1205;47.984;7.668;2023-01-30T03:50:00;12.40;;;8.40;;
2388;SDS011;1205;47.984;7.668;2023-01-30T03:52:26;12.40;;;7.50;;
2388;SDS011;1205;47.984;7.668;2023-01-30T03:54:51;12.93;;;7.50;;
2388;SDS011;1205;47.984;7.668;2023-01-30T03:57:17;10.97;;;7.60;;
2388;SDS011;1205;47.984;7.668;2023-01-30T03:59:42;10.43;;;7.07;;
2388;SDS011;1205;47.984;7.668;2023-01-30T04:02:08;12.50;;;7.53;;
2388;SDS011;1205;47.984;7.668;2023-01-30T04:04:34;10.10;;;7.27;;
2388;SDS011;1205;47.984;7.668;2023-01-30T04:07:00;14.47;;;8.50;;
2388;SDS011;1205;47.984;7.668;2023-01-30T04:09:25;11.50;;;8.00;;
2388;SDS011;1205;47.984;7.668;2023-01-30T04:11:51;10.10;;;7.60;;
2388;SDS011;1205;47.984;7.668;2023-01-30T04:14:17;11.63;;;7.50;;
2388;SDS011;1205;47.984;7.668;2023-01-30T04:16:42;11.03;;;7.70;;
2388;SDS011;1205;47.984;7.668;2023-01-30T04:19:08;10.27;;;7.57;;
2388;SDS011;1205;47.984;7.668;2023-01-30T04:21:33;10.30;;;7.43;;
2388;SDS011;1205;47.984;7.668;2023-01-30T04:23:59;16.33;;;8.43;;
2388;SDS011;1205;47.984;7.668;2023-01-30T04:26:24;10.30;;;7.17;;
2388;SDS011;1205;47.984;7.668;2023-01-30T04:28:50;11.90;;;7.33;;
2388;SDS011;1205;47.984;7.668;2023-01-30T04:31:16;9.53;;;6.73;;
2388;SDS011;1205;47.984;7.668;2023-01-30T04:33:41;10.47;;;7.73;;
2388;SDS011;1205;47.984;7.668;2023-01-30T04:36:07;11.40;;;7.57;;
2388;SDS011;1205;47.984;7.668;2023-01-30T04:38:34;11.43;;;7.80;;
2388;SDS011;1205;47.984;7.668;2023-01-30T04:41:00;10.47;;;7.20;;
2388;SDS011;1205;47.984;7.668;2023-01-30T04:43:26;10.77;;;7.93;;
2388;SDS011;1205;47.984;7.668;2023-01-30T04:45:53;10.50;;;7.97;;
2388;SDS011;1205;47.984;7.668;2023-01-30T04:48:19;10.87;;;7.40;;
2388;SDS011;1205;47.984;7.668;2023-01-30T04:50:47;12.57;;;8.07;;
2388;SDS011;1205;47.984;7.668;2023-01-30T04:53:14;15.63;;;8.40;;
2388;SDS011;1205;47.984;7.668;2023-01-30T04:55:40;16.90;;;8.70;;
2388;SDS011;1205;47.984;7.668;2023-01-30T04:58:06;11.97;;;7.83;;
2388;SDS011;1205;47.984;7.668;2023-01-30T05:00:31;14.73;;;9.43;;
2388;SDS011;1205;47.984;7.668;2023-01-30T05:02:57;12.50;;;8.30;;
2388;SDS011;1205;47.984;7.668;2023-01-30T05:05:23;11.13;;;7.87;;
2388;SDS011;1205;47.984;7.668;2023-01-30T05:07:50;13.90;;;8.33;;
2388;SDS011;1205;47.984;7.668;2023-01-30T05:10:16;10.60;;;7.50;;
2388;SDS011;1205;47.984;7.668;2023-01-30T05:12:42;12.23;;;8.33;;
2388;SDS011;1205;47.984;7.668;2023-01-30T05:15:08;13.67;;;9.20;;
2388;SDS011;1205;47.984;7.668;2023-01-30T05:17:35;11.73;;;8.30;;
2388;SDS011;1205;47.984;7.668;2023-01-30T05:20:01;13.03;;;8.07;;
2388;SDS011;1205;47.984;7.668;2023-01-30T05:22:26;13.23;;;8.47;;
2388;SDS011;1205;47.984;7.668;2023-01-30T05:24:52;11.60;;;8.80;;
2388;SDS011;1205;47.984;7.668;2023-01-30T05:27:17;11.50;;;8.40;;
2388;SDS011;1205;47.984;7.668;2023-01-30T05:29:43;12.13;;;7.77;;
2388;SDS011;1205;47.984;7.668;2023-01-30T05:32:12;15.10;;;9.53;;
2388;SDS011;1205;47.984;7.668;2023-01-30T05:34:39;13.40;;;7.93;;
2388;SDS011;1205;47.984;7.668;2023-01-30T05:37:05;13.33;;;8.43;;
2388;SDS011;1205;47.984;7.668;2023-01-30T05:39:31;13.50;;;8.67;;
2388;SDS011;1205;47.984;7.668;2023-01-30T05:41:56;15.07;;;8.77;;
2388;SDS011;1205;47.984;7.668;2023-01-30T05:44:22;17.77;;;10.43;;
2388;SDS011;1205;47.984;7.668;2023-01-30T05:46:47;15.63;;;10.20;;
2388;SDS011;1205;47.984;7.668;2023-01-30T05:49:13;18.07;;;10.10;;
2388;SDS011;1205;47.984;7.668;2023-01-30T05:51:38;16.60;;;10.90;;
2388;SDS011;1205;47.984;7.668;2023-01-30T05:54:04;15.93;;;10.00;;
2388;SDS011;1205;47.984;7.668;2023-01-30T05:56:30;17.17;;;9.80;;
2388;SDS011;1205;47.984;7.668;2023-01-30T05:58:57;17.67;;;9.47;;
2388;SDS011;1205;47.984;7.668;2023-01-30T06:01:24;16.13;;;9.80;;
2388;SDS011;1205;47.984;7.668;2023-01-30T06:03:50;15.83;;;9.90;;
2388;SDS011;1205;47.984;7.668;2023-01-30T06:06:16;12.37;;;8.77;;
2388;SDS011;1205;47.984;7.668;2023-01-30T06:08:41;16.30;;;9.00;;
2388;SDS011;1205;47.984;7.668;2023-01-30T06:11:08;13.70;;;9.07;;
2388;SDS011;1205;47.984;7.668;2023-01-30T06:13:41;14.30;;;8.97;;
2388;SDS011;1205;47.984;7.668;2023-01-30T06:16:08;18.20;;;9.70;;
2388;SDS011;1205;47.984;7.668;2023-01-30T06:18:35;13.53;;;8.00;;
2388;SDS011;1205;47.984;7.668;2023-01-30T06:21:02;12.63;;;8.10;;
2388;SDS011;1205;47.984;7.668;2023-01-30T06:23:28;13.50;;;8.70;;
2388;SDS011;1205;47.984;7.668;2023-01-30T06:25:53;10.10;;;7.80;;
2388;SDS011;1205;47.984;7.668;2023-01-30T06:28:20;14.43;;;8.93;;
2388;SDS011;1205;47.984;7.668;2023-01-30T06:30:46;12.97;;;8.47;;
2388;SDS011;1205;47.984;7.668;2023-01-30T06:33:12;11.20;;;7.90;;
2388;SDS011;1205;47.984;7.668;2023-01-30T06:35:38;12.90;;;9.17;;
2388;SDS011;1205;47.984;7.668;2023-01-30T06:38:06;14.47;;;9.70;;
2388;SDS011;1205;47.984;7.668;2023-01-30T06:40:35;12.17;;;8.90;;
2388;SDS011;1205;47.984;7.668;2023-01-30T06:43:03;12.50;;;8.73;;
2388;SDS011;1205;47.984;7.668;2023-01-30T06:45:29;15.53;;;10.03;;
2388;SDS011;1205;47.984;7.668;2023-01-30T06:47:55;14.80;;;9.77;;
2388;SDS011;1205;47.984;7.668;2023-01-30T06:50:22;13.33;;;9.13;;
2388;SDS011;1205;47.984;7.668;2023-01-30T06:52:50;13.87;;;7.97;;
2388;SDS011;1205;47.984;7.668;2023-01-30T06:55:21;16.83;;;8.83;;
2388;SDS011;1205;47.984;7.668;2023-01-30T06:57:49;11.77;;;8.03;;
2388;SDS011;1205;47.984;7.668;2023-01-30T07:00:18;12.70;;;8.53;;
2388;SDS011;1205;47.984;7.668;2023-01-30T07:02:44;14.80;;;8.30;;
2388;SDS011;1205;47.984;7.668;2023-01-30T07:05:11;11.83;;;8.57;;
2388;SDS011;1205;47.984;7.668;2023-01-30T07:07:37;15.07;;;8.93;;
2388;SDS011;1205;47.984;7.668;2023-01-30T07:10:04;14.43;;;8.93;;
2388;SDS011;1205;47.984;7.668;2023-01-30T07:12:31;13.80;;;8.60;;
2388;SDS011;1205;47.984;7.668;2023-01-30T07:14:56;13.37;;;8.33;;
2388;SDS011;1205;47.984;7.668;2023-01-30T07:17:22;12.67;;;8.33;;
2388;SDS011;1205;47.984;7.668;2023-01-30T07:19:48;14.17;;;8.43;;
2388;SDS011;1205;47.984;7.668;2023-01-30T07:22:14;14.57;;;9.60;;
2388;SDS011;1205;47.984;7.668;2023-01-30T07:24:40;16.00;;;9.70;;
2388;SDS011;1205;47.984;7.668;2023-01-30T07:27:10;14.53;;;9.07;;
2388;SDS011;1205;47.984;7.668;2023-01-30T07:29:37;14.57;;;8.40;;
2388;SDS011;1205;47.984;7.668;2023-01-30T07:32:04;15.00;;;9.60;;
2388;SDS011;1205;47.984;7.668;2023-01-30T07:34:32;13.17;;;9.43;;
2388;SDS011;1205;47.984;7.668;2023-01-30T07:36:58;12.70;;;8.53;;
2388;SDS011;1205;47.984;7.668;2023-01-30T07:39:23;13.97;;;9.37;;
2388;SDS011;1205;47.984;7.668;2023-01-30T07:41:49;14.53;;;9.10;;
2388;SDS011;1205;47.984;7.668;2023-01-30T07:44:15;14.43;;;9.10;;
2388;SDS011;1205;47.984;7.668;2023-01-30T07:46:40;12.03;;;8.10;;
2388;SDS011;1205;47.984;7.668;2023-01-30T07:49:06;11.40;;;7.77;;
2388;SDS011;1205;47.984;7.668;2023-01-30T07:51:33;15.07;;;9.00;;
2388;SDS011;1205;47.984;7.668;2023-01-30T07:53:59;14.63;;;9.23;;
2388;SDS011;1205;47.984;7.668;2023-01-30T07:56:26;14.87;;;9.10;;
2388;SDS011;1205;47.984;7.668;2023-01-30T07:58:52;11.70;;;8.60;;
2388;SDS011;1205;47.984;7.668;2023-01-30T08:01:19;17.93;;;8.70;;
2388;SDS011;1205;47.984;7.668;2023-01-30T08:03:44;12.53;;;8.73;;
2388;SDS011;1205;47.984;7.668;2023-01-30T08:06:11;13.77;;;8.47;;
2388;SDS011;1205;47.984;7.668;2023-01-30T08:08:38;13.73;;;8.70;;
2388;SDS011;1205;47.984;7.668;2023-01-30T08:11:04;15.37;;;9.03;;
2388;SDS011;1205;47.984;7.668;2023-01-30T08:13:30;13.03;;;8.63;;
2388;SDS011;1205;47.984;7.668;2023-01-30T08:15:59;15.83;;;8.40;;
2388;SDS011;1205;47.984;7.668;2023-01-30T08:18:26;11.87;;;7.90;;
2388;SDS011;1205;47.984;7.668;2023-01-30T08:20:56;14.13;;;9.10;;
2388;SDS011;1205;47.984;7.668;2023-01-30T08:23:25;14.53;;;9.37;;
2388;SDS011;1205;47.984;7.668;2023-01-30T08:25:55;12.73;;;8.47;;
2388;SDS011;1205;47.984;7.668;2023-01-30T08:28:22;15.73;;;10.30;;
2388;SDS011;1205;47.984;7.668;2023-01-30T08:30:47;13.80;;;8.60;;
2388;SDS011;1205;47.984;7.668;2023-01-30T08:33:13;12.93;;;9.10;;
2388;SDS011;1205;47.984;7.668;2023-01-30T08:35:39;11.63;;;8.90;;
2388;SDS011;1205;47.984;7.668;2023-01-30T08:38:05;15.90;;;9.60;;
2388;SDS011;1205;47.984;7.668;2023-01-30T08:40:32;12.20;;;8.50;;
2388;SDS011;1205;47.984;7.668;2023-01-30T08:42:59;14.77;;;9.30;;
2388;SDS011;1205;47.984;7.668;2023-01-30T08:45:25;24.43;;;11.20;;
2388;SDS011;1205;47.984;7.668;2023-01-30T08:47:50;19.93;;;9.53;;
2388;SDS011;1205;47.984;7.668;2023-01-30T08:50:16;14.60;;;9.03;;
2388;SDS011;1205;47.984;7.668;2023-01-30T08:52:41;13.40;;;8.90;;
2388;SDS011;1205;47.984;7.668;2023-01-30T08:55:07;14.73;;;9.00;;
2388;SDS011;1205;47.984;7.668;2023-01-30T08:57:33;13.57;;;9.20;;
2388;SDS011;1205;47.984;7.668;2023-01-30T08:59:59;12.53;;;8.60;;
2388;SDS011;1205;47.984;7.668;2023-01-30T09:02:25;13.03;;;8.77;;
2388;SDS011;1205;47.984;7.668;2023-01-30T09:04:50;18.80;;;8.70;;
2388;SDS011;1205;47.984;7.668;2023-01-30T09:07:16;14.80;;;8.30;;
2388;SDS011;1205;47.984;7.668;2023-01-30T09:09:41;16.03;;;8.90;;
2388;SDS011;1205;47.984;7.668;2023-01-30T09:12:07;18.13;;;9.80;;
2388;SDS011;1205;47.984;7.668;2023-01-30T09:14:33;14.53;;;9.13;;
2388;SDS011;1205;47.984;7.668;2023-01-30T09:16:59;14.87;;;9.20;;
2388;SDS011;1205;47.984;7.668;2023-01-30T09:19:25;11.83;;;8.50;;
2388;SDS011;1205;47.984;7.668;2023-01-30T09:21:51;14.07;;;8.57;;
2388;SDS011;1205;47.984;7.668;2023-01-30T09:24:18;16.20;;;8.40;;
2388;SDS011;1205;47.984;7.668;2023-01-30T09:26:44;12.47;;;9.00;;
2388;SDS011;1205;47.984;7.668;2023-01-30T09:29:10;21.33;;;9.57;;
2388;SDS011;1205;47.984;7.668;2023-01-30T09:31:36;22.80;;;9.50;;
2388;SDS011;1205;47.984;7.668;2023-01-30T09:34:02;14.20;;;8.50;;
2388;SDS011;1205;47.984;7.668;2023-01-30T09:36:28;17.30;;;9.37;;
2388;SDS011;1205;47.984;7.668;2023-01-30T09:38:53;11.97;;;8.47;;
2388;SDS011;1205;47.984;7.668;2023-01-30T09:41:25;13.93;;;9.57;;
2388;SDS011;1205;47.984;7.668;2023-01-30T09:44:13;13.33;;;9.23;;
2388;SDS011;1205;47.984;7.668;2023-01-30T09:52:41;15.53;;;9.33;;
2388;SDS011;1205;47.984;7.668;2023-01-30T09:55:23;14.80;;;9.07;;
2388;SDS011;1205;47.984;7.668;2023-01-30T09:57:54;15.17;;;9.20;;
2388;SDS011;1205;47.984;7.668;2023-01-30T10:00:38;14.90;;;9.30;;
2388;SDS011;1205;47.984;7.668;2023-01-30T10:05:46;14.63;;;9.30;;
2388;SDS011;1205;47.984;7.668;2023-01-30T10:08:22;14.47;;;9.33;;
2388;SDS011;1205;47.984;7.668;2023-01-30T10:18:38;11.17;;;7.87;;
2388;SDS011;1205;47.984;7.668;2023-01-30T10:21:25;12.60;;;8.47;;
2388;SDS011;1205;47.984;7.668;2023-01-30T10:26:57;17.17;;;10.63;;
2388;SDS011;1205;47.984;7.668;2023-01-30T10:29:30;15.77;;;9.83;;
2388;SDS011;1205;47.984;7.668;2023-01-30T10:32:04;13.40;;;9.63;;
2388;SDS011;1205;47.984;7.668;2023-01-30T10:34:37;15.83;;;8.33;;
2388;SDS011;1205;47.984;7.668;2023-01-30T10:37:18;14.10;;;9.63;;
2388;SDS011;1205;47.984;7.668;2023-01-30T10:45:21;12.80;;;8.87;;
2388;SDS011;1205;47.984;7.668;2023-01-30T10:48:04;12.60;;;8.57;;
2388;SDS011;1205;47.984;7.668;2023-01-30T10:58:57;16.00;;;10.10;;
2388;SDS011;1205;47.984;7.668;2023-01-30T11:01:43;14.80;;;9.10;;
2388;SDS011;1205;47.984;7.668;2023-01-30T11:07:00;15.10;;;8.20;;
2388;SDS011;1205;47.984;7.668;2023-01-30T11:09:43;19.40;;;9.90;;
2388;SDS011;1205;47.984;7.668;2023-01-30T11:12:10;17.13;;;10.30;;
2388;SDS011;1205;47.984;7.668;2023-01-30T11:17:29;13.47;;;8.30;;
2388;SDS011;1205;47.984;7.668;2023-01-30T11:20:05;11.07;;;7.50;;
2388;SDS011;1205;47.984;7.668;2023-01-30T11:25:31;16.70;;;9.90;;
2388;SDS011;1205;47.984;7.668;2023-01-30T11:28:14;14.90;;;8.60;;
2388;SDS011;1205;47.984;7.668;2023-01-30T11:30:43;10.40;;;7.97;;
2388;SDS011;1205;47.984;7.668;2023-01-30T11:33:18;13.23;;;8.67;;
2388;SDS011;1205;47.984;7.668;2023-01-30T11:35:57;11.23;;;8.50;;
2388;SDS011;1205;47.984;7.668;2023-01-30T11:38:25;13.80;;;8.10;;
2388;SDS011;1205;47.984;7.668;2023-01-30T11:41:03;13.90;;;8.90;;
2388;SDS011;1205;47.984;7.668;2023-01-30T11:43:40;12.40;;;8.17;;
2388;SDS011;1205;47.984;7.668;2023-01-30T11:46:08;10.13;;;7.87;;
2388;SDS011;1205;47.984;7.668;2023-01-30T11:48:43;8.53;;;6.70;;
2388;SDS011;1205;47.984;7.668;2023-01-30T11:51:13;21.90;;;7.67;;
2388;SDS011;1205;47.984;7.668;2023-01-30T11:53:44;9.40;;;7.00;;
2388;SDS011;1205;47.984;7.668;2023-01-30T11:56:16;12.17;;;7.57;;
2388;SDS011;1205;47.984;7.668;2023-01-30T11:58:55;11.27;;;7.10;;
2388;SDS011;1205;47.984;7.668;2023-01-30T12:01:30;10.03;;;7.87;;
2388;SDS011;1205;47.984;7.668;2023-01-30T12:03:58;12.17;;;7.13;;
2388;SDS011;1205;47.984;7.668;2023-01-30T12:06:28;14.40;;;6.90;;
2388;SDS011;1205;47.984;7.668;2023-01-30T12:08:54;9.83;;;6.83;;
2388;SDS011;1205;47.984;7.668;2023-01-30T12:11:25;9.90;;;6.80;;
2388;SDS011;1205;47.984;7.668;2023-01-30T12:13:58;15.40;;;6.90;;
2388;SDS011;1205;47.984;7.668;2023-01-30T12:19:48;8.70;;;6.60;;
2388;SDS011;1205;47.984;7.668;2023-01-30T12:25:01;11.30;;;7.40;;
2388;SDS011;1205;47.984;7.668;2023-01-30T12:30:23;9.20;;;7.23;;
2388;SDS011;1205;47.984;7.668;2023-01-30T12:33:02;10.13;;;6.90;;
2388;SDS011;1205;47.984;7.668;2023-01-30T12:38:20;8.83;;;6.47;;
2388;SDS011;1205;47.984;7.668;2023-01-30T12:41:31;10.70;;;7.80;;
2388;SDS011;1205;47.984;7.668;2023-01-30T12:49:35;9.63;;;7.30;;
2388;SDS011;1205;47.984;7.668;2023-01-30T12:52:18;8.80;;;6.87;;
2388;SDS011;1205;47.984;7.668;2023-01-30T12:58:00;9.60;;;7.13;;
2388;SDS011;1205;47.984;7.668;2023-01-30T13:20:46;9.80;;;6.70;;
2388;SDS011;1205;47.984;7.668;2023-01-30T13:23:16;8.73;;;6.67;;
2388;SDS011;1205;47.984;7.668;2023-01-30T13:28:27;9.07;;;6.40;;
2388;SDS011;1205;47.984;7.668;2023-01-30T13:30:57;7.40;;;6.03;;
2388;SDS011;1205;47.984;7.668;2023-01-30T13:33:24;9.97;;;6.77;;
2388;SDS011;1205;47.984;7.668;2023-01-30T13:41:28;11.43;;;6.50;;
2388;SDS011;1205;47.984;7.668;2023-01-30T13:43:59;8.03;;;6.30;;
2388;SDS011;1205;47.984;7.668;2023-01-30T13:46:30;9.13;;;6.73;;
2388;SDS011;1205;47.984;7.668;2023-01-30T13:57:24;12.30;;;6.00;;
2388;SDS011;1205;47.984;7.668;2023-01-30T14:00:20;6.67;;;5.70;;
2388;SDS011;1205;47.984;7.668;2023-01-30T14:08:23;6.30;;;5.30;;
2388;SDS011;1205;47.984;7.668;2023-01-30T14:14:03;5.70;;;5.10;;
2388;SDS011;1205;47.984;7.668;2023-01-30T14:16:40;5.20;;;4.70;;
2388;SDS011;1205;47.984;7.668;2023-01-30T14:33:01;9.27;;;7.10;;
2388;SDS011;1205;47.984;7.668;2023-01-30T14:35:31;9.20;;;6.87;;
2388;SDS011;1205;47.984;7.668;2023-01-30T14:38:07;9.40;;;6.10;;
2388;SDS011;1205;47.984;7.668;2023-01-30T14:40:36;9.30;;;5.97;;
2388;SDS011;1205;47.984;7.668;2023-01-30T14:45:46;7.57;;;5.50;;
2388;SDS011;1205;47.984;7.668;2023-01-30T14:48:30;9.43;;;7.13;;
2388;SDS011;1205;47.984;7.668;2023-01-30T15:04:45;5.30;;;4.80;;
2388;SDS011;1205;47.984;7.668;2023-01-30T15:07:12;6.20;;;5.20;;
2388;SDS011;1205;47.984;7.668;2023-01-30T15:09:48;6.20;;;5.57;;
2388;SDS011;1205;47.984;7.668;2023-01-30T15:15:29;5.63;;;4.27;;
2388;SDS011;1205;47.984;7.668;2023-01-30T15:31:39;8.10;;;6.07;;
2388;SDS011;1205;47.984;7.668;2023-01-30T15:34:20;9.13;;;6.83;;
2388;SDS011;1205;47.984;7.668;2023-01-30T15:36:47;5.30;;;4.80;;
2388;SDS011;1205;47.984;7.668;2023-01-30T15:39:19;6.23;;;5.10;;
2388;SDS011;1205;47.984;7.668;2023-01-30T15:41:49;5.80;;;4.37;;
2388;SDS011;1205;47.984;7.668;2023-01-30T15:47:21;4.60;;;4.20;;
2388;SDS011;1205;47.984;7.668;2023-01-30T15:50:09;4.70;;;4.30;;
2388;SDS011;1205;47.984;7.668;2023-01-30T15:52:42;4.63;;;4.23;;
2388;SDS011;1205;47.984;7.668;2023-01-30T15:55:16;5.10;;;4.57;;
2388;SDS011;1205;47.984;7.668;2023-01-30T15:57:53;4.53;;;3.93;;
2388;SDS011;1205;47.984;7.668;2023-01-30T16:00:56;5.40;;;4.33;;
2388;SDS011;1205;47.984;7.668;2023-01-30T16:03:18;5.13;;;4.63;;
2388;SDS011;1205;47.984;7.668;2023-01-30T16:05:47;5.40;;;4.90;;
2388;SDS011;1205;47.984;7.668;2023-01-30T16:08:24;6.80;;;5.17;;
2388;SDS011;1205;47.984;7.668;2023-01-30T16:10:54;11.63;;;7.50;;
2388;SDS011;1205;47.984;7.668;2023-01-30T16:13:20;7.67;;;6.03;;
2388;SDS011;1205;47.984;7.668;2023-01-30T16:21:02;7.00;;;6.03;;
2388;SDS011;1205;47.984;7.668;2023-01-30T16:23:38;4.83;;;4.30;;
2388;SDS011;1205;47.984;7.668;2023-01-30T16:26:08;5.80;;;5.13;;
2388;SDS011;1205;47.984;7.668;2023-01-30T16:28:41;5.70;;;4.97;;
2388;SDS011;1205;47.984;7.668;2023-01-30T16:31:08;4.60;;;3.90;;
2388;SDS011;1205;47.984;7.668;2023-01-30T16:33:35;4.70;;;4.30;;
2388;SDS011;1205;47.984;7.668;2023-01-30T16:36:04;6.50;;;4.90;;
2388;SDS011;1205;47.984;7.668;2023-01-30T16:38:50;6.90;;;5.20;;
2388;SDS011;1205;47.984;7.668;2023-01-30T16:41:36;4.10;;;3.80;;
2388;SDS011;1205;47.984;7.668;2023-01-30T16:44:17;5.00;;;4.30;;
2388;SDS011;1205;47.984;7.668;2023-01-30T16:46:45;4.20;;;3.80;;
2388;SDS011;1205;47.984;7.668;2023-01-30T16:49:15;4.67;;;4.23;;
2388;SDS011;1205;47.984;7.668;2023-01-30T16:54:56;12.60;;;6.80;;
2388;SDS011;1205;47.984;7.668;2023-01-30T16:57:25;15.70;;;7.20;;
2388;SDS011;1205;47.984;7.668;2023-01-30T16:59:55;11.40;;;7.30;;
2388;SDS011;1205;47.984;7.668;2023-01-30T17:02:23;23.40;;;12.30;;
2388;SDS011;1205;47.984;7.668;2023-01-30T17:05:05;16.60;;;9.90;;
2388;SDS011;1205;47.984;7.668;2023-01-30T17:07:40;6.60;;;5.87;;
2388;SDS011;1205;47.984;7.668;2023-01-30T17:10:21;3.90;;;3.60;;
2388;SDS011;1205;47.984;7.668;2023-01-30T17:12:51;4.10;;;3.80;;
2388;SDS011;1205;47.984;7.668;2023-01-30T17:17:43;5.30;;;4.80;;
2388;SDS011;1205;47.984;7.668;2023-01-30T17:20:09;4.53;;;4.13;;
2388;SDS011;1205;47.984;7.668;2023-01-30T17:22:36;4.63;;;4.23;;
2388;SDS011;1205;47.984;7.668;2023-01-30T17:25:05;4.10;;;3.80;;
2388;SDS011;1205;47.984;7.668;2023-01-30T17:27:38;5.60;;;4.80;;
2388;SDS011;1205;47.984;7.668;2023-01-30T17:30:11;12.50;;;7.77;;
2388;SDS011;1205;47.984;7.668;2023-01-30T17:32:40;5.80;;;5.20;;
2388;SDS011;1205;47.984;7.668;2023-01-30T17:35:06;6.90;;;6.10;;
2388;SDS011;1205;47.984;7.668;2023-01-30T17:37:32;8.53;;;6.53;;
2388;SDS011;1205;47.984;7.668;2023-01-30T17:39:58;7.40;;;5.63;;
2388;SDS011;1205;47.984;7.668;2023-01-30T17:42:24;9.73;;;6.80;;
2388;SDS011;1205;47.984;7.668;2023-01-30T17:44:50;7.00;;;5.30;;
2388;SDS011;1205;47.984;7.668;2023-01-30T17:47:16;5.30;;;4.80;;
2388;SDS011;1205;47.984;7.668;2023-01-30T17:49:42;4.63;;;4.23;;
2388;SDS011;1205;47.984;7.668;2023-01-30T17:52:07;3.97;;;3.73;;
2388;SDS011;1205;47.984;7.668;2023-01-30T17:54:35;4.67;;;4.30;;
2388;SDS011;1205;47.984;7.668;2023-01-30T17:57:02;6.90;;;4.73;;
2388;SDS011;1205;47.984;7.668;2023-01-30T17:59:29;3.93;;;3.63;;
2388;SDS011;1205;47.984;7.668;2023-01-30T18:01:55;4.90;;;4.40;;
2388;SDS011;1205;47.984;7.668;2023-01-30T18:04:21;4.70;;;4.30;;
2388;SDS011;1205;47.984;7.668;2023-01-30T18:06:52;3.03;;;2.83;;
2388;SDS011;1205;47.984;7.668;2023-01-30T18:09:21;3.53;;;3.30;;
2388;SDS011;1205;47.984;7.668;2023-01-30T18:11:49;3.63;;;3.47;;
2388;SDS011;1205;47.984;7.668;2023-01-30T18:14:15;4.53;;;4.20;;
2388;SDS011;1205;47.984;7.668;2023-01-30T18:16:41;5.37;;;4.70;;
2388;SDS011;1205;47.984;7.668;2023-01-30T18:19:09;4.73;;;4.30;;
2388;SDS011;1205;47.984;7.668;2023-01-30T18:21:37;4.53;;;4.13;;
2388;SDS011;1205;47.984;7.668;2023-01-30T18:24:04;4.57;;;4.00;;
2388;SDS011;1205;47.984;7.668;2023-01-30T18:26:31;8.57;;;5.17;;
2388;SDS011;1205;47.984;7.668;2023-01-30T18:28:57;4.20;;;3.80;;
2388;SDS011;1205;47.984;7.668;2023-01-30T18:31:23;4.10;;;3.20;;